createdAt,value
2017-08-21T00:00:43.555Z,16.00
2017-08-21T00:03:13.310Z,16.00
2017-08-21T00:05:45.909Z,16.00
2017-08-21T00:08:15.332Z,16.00
2017-08-21T00:10:44.676Z,16.00
2017-08-21T00:13:14.848Z,15.90
2017-08-21T00:15:44.150Z,15.90
2017-08-21T00:18:13.243Z,15.90
2017-08-21T00:20:42.705Z,15.80
2017-08-21T00:23:11.791Z,15.80
2017-08-21T00:25:40.798Z,15.80
2017-08-21T00:28:09.823Z,15.80
2017-08-21T00:30:39.583Z,15.70
2017-08-21T00:33:09.159Z,15.80
2017-08-21T00:35:38.153Z,15.80
2017-08-21T00:38:07.357Z,15.80
2017-08-21T00:40:36.502Z,15.80
2017-08-21T00:43:05.587Z,15.80
2017-08-21T00:45:35.205Z,15.70
2017-08-21T00:48:05.276Z,15.60
2017-08-21T00:50:34.533Z,15.60
2017-08-21T00:53:03.721Z,15.60
2017-08-21T00:55:34.101Z,15.60
2017-08-21T00:58:06.604Z,15.60
2017-08-21T01:00:36.393Z,15.60
2017-08-21T01:03:06.076Z,15.60
2017-08-21T01:05:35.181Z,15.60
2017-08-21T01:08:04.377Z,15.60
2017-08-21T01:10:38.735Z,15.50
2017-08-21T01:13:10.896Z,15.60
2017-08-21T01:15:42.069Z,15.60
2017-08-21T01:18:11.103Z,15.60
2017-08-21T01:20:40.108Z,15.40
2017-08-21T01:23:09.090Z,15.50
2017-08-21T01:25:38.232Z,15.40
2017-08-21T01:28:08.229Z,15.40
2017-08-21T01:30:37.359Z,15.40
2017-08-21T01:33:08.833Z,15.40
2017-08-21T01:35:38.794Z,15.30
2017-08-21T01:38:08.198Z,15.30
2017-08-21T01:40:37.475Z,15.30
2017-08-21T01:43:06.776Z,15.30
2017-08-21T01:45:36.330Z,15.20
2017-08-21T01:48:05.653Z,15.20
2017-08-21T01:50:34.793Z,15.30
2017-08-21T01:53:04.054Z,15.30
2017-08-21T01:55:33.252Z,15.20
2017-08-21T01:58:02.370Z,15.20
2017-08-21T02:00:31.574Z,15.20
2017-08-21T02:03:00.760Z,15.30
2017-08-21T02:05:30.020Z,15.30
2017-08-21T02:07:59.558Z,15.40
2017-08-21T02:10:28.794Z,15.40
2017-08-21T02:12:58.119Z,15.40
2017-08-21T02:15:27.710Z,15.40
2017-08-21T02:17:56.622Z,15.40
2017-08-21T02:20:25.622Z,15.50
2017-08-21T02:22:54.674Z,15.50
2017-08-21T02:25:23.881Z,15.60
2017-08-21T02:27:53.530Z,15.60
2017-08-21T02:30:22.746Z,15.60
2017-08-21T02:32:51.930Z,15.60
2017-08-21T02:35:20.951Z,15.50
2017-08-21T02:37:49.953Z,15.50
2017-08-21T02:40:18.971Z,15.40
2017-08-21T02:42:47.913Z,15.40
2017-08-21T02:45:17.573Z,15.30
2017-08-21T02:47:46.753Z,15.40
2017-08-21T02:50:15.945Z,15.30
2017-08-21T02:52:45.159Z,15.30
2017-08-21T02:55:14.321Z,15.10
2017-08-21T02:57:43.706Z,15.20
2017-08-21T03:00:12.708Z,15.10
2017-08-21T03:02:41.681Z,15.20
2017-08-21T03:05:10.866Z,15.10
2017-08-21T03:07:39.793Z,15.10
2017-08-21T03:10:09.320Z,15.10
2017-08-21T03:12:38.494Z,15.10
2017-08-21T03:15:08.442Z,15.10
2017-08-21T03:17:37.749Z,15.10
2017-08-21T03:20:06.792Z,15.10
2017-08-21T03:22:35.845Z,15.10
2017-08-21T03:25:04.945Z,15.10
2017-08-21T03:27:34.311Z,15.10
2017-08-21T03:30:03.474Z,15.00
2017-08-21T03:32:32.601Z,15.00
2017-08-21T03:35:01.864Z,15.00
2017-08-21T03:37:31.094Z,14.90
2017-08-21T03:40:00.560Z,14.90
2017-08-21T03:42:29.734Z,14.80
2017-08-21T03:44:59.810Z,14.80
2017-08-21T03:47:28.887Z,14.80
2017-08-21T03:49:57.848Z,14.80
2017-08-21T03:52:27.382Z,14.80
2017-08-21T03:54:56.401Z,14.80
2017-08-21T03:57:25.404Z,14.80
2017-08-21T03:59:54.538Z,14.80
2017-08-21T04:02:23.704Z,14.80
2017-08-21T04:04:52.853Z,14.90
2017-08-21T04:07:22.347Z,14.90
2017-08-21T04:09:51.842Z,14.80
2017-08-21T04:12:20.972Z,14.80
2017-08-21T04:14:50.051Z,14.80
2017-08-21T04:17:19.031Z,14.70
2017-08-21T04:19:48.142Z,14.60
2017-08-21T04:22:18.478Z,14.60
2017-08-21T04:24:47.865Z,14.60
2017-08-21T04:27:16.871Z,14.60
2017-08-21T04:29:46.869Z,14.60
2017-08-21T04:32:16.013Z,14.60
2017-08-21T04:34:45.175Z,14.60
2017-08-21T04:37:15.134Z,14.50
2017-08-21T04:39:44.289Z,14.50
2017-08-21T04:42:13.941Z,14.50
2017-08-21T04:44:43.048Z,14.50
2017-08-21T04:47:12.138Z,14.50
2017-08-21T04:49:41.408Z,14.40
2017-08-21T04:52:11.516Z,14.30
2017-08-21T04:54:41.913Z,14.30
2017-08-21T04:57:11.221Z,14.30
2017-08-21T04:59:40.400Z,14.30
2017-08-21T05:02:09.878Z,14.40
2017-08-21T05:04:39.303Z,14.40
2017-08-21T05:07:08.317Z,14.40
2017-08-21T05:09:37.363Z,14.40
2017-08-21T05:12:06.409Z,14.50
2017-08-21T05:14:35.541Z,14.60
2017-08-21T05:17:05.814Z,14.70
2017-08-21T05:19:35.683Z,14.70
2017-08-21T05:22:05.699Z,14.80
2017-08-21T05:24:34.802Z,14.70
2017-08-21T05:27:04.039Z,14.70
2017-08-21T05:29:33.263Z,14.70
2017-08-21T05:32:02.546Z,14.70
2017-08-21T05:34:31.830Z,14.70
2017-08-21T05:37:00.945Z,14.80
2017-08-21T05:39:29.974Z,14.80
2017-08-21T05:41:59.096Z,14.70
2017-08-21T05:44:28.406Z,14.70
2017-08-21T05:46:57.399Z,14.70
2017-08-21T05:49:26.542Z,14.60
2017-08-21T05:51:55.741Z,14.50
2017-08-21T05:54:25.044Z,14.50
2017-08-21T05:56:54.545Z,14.50
2017-08-21T05:59:23.650Z,14.60
2017-08-21T06:01:52.833Z,14.60
2017-08-21T06:04:22.105Z,14.70
2017-08-21T06:06:51.506Z,14.80
2017-08-21T06:09:20.748Z,14.90
2017-08-21T06:11:49.933Z,14.90
2017-08-21T06:14:19.244Z,15.00
2017-08-21T06:16:48.446Z,15.10
2017-08-21T06:19:18.386Z,15.30
2017-08-21T06:21:47.601Z,15.30
2017-08-21T06:24:16.698Z,15.40
2017-08-21T06:26:46.276Z,15.50
2017-08-21T06:29:15.407Z,15.60
2017-08-21T06:31:44.588Z,15.80
2017-08-21T06:34:13.638Z,15.90
2017-08-21T06:36:43.184Z,16.20
2017-08-21T06:39:13.169Z,16.50
2017-08-21T06:41:42.380Z,16.60
2017-08-21T06:44:11.634Z,17.00
2017-08-21T06:46:41.405Z,17.70
2017-08-21T06:49:10.557Z,18.40
2017-08-21T06:51:39.714Z,18.90
2017-08-21T06:54:09.002Z,19.40
2017-08-21T06:56:38.082Z,19.70
2017-08-21T06:59:13.145Z,20.00
2017-08-21T07:01:43.464Z,19.90
2017-08-21T07:04:12.517Z,20.00
2017-08-21T07:06:41.743Z,20.60
2017-08-21T07:09:11.225Z,20.10
2017-08-21T07:11:40.293Z,19.70
2017-08-21T07:14:09.575Z,19.40
2017-08-21T07:16:38.854Z,19.00
2017-08-21T07:19:08.063Z,18.70
2017-08-21T07:21:37.283Z,18.50
2017-08-21T07:24:06.526Z,18.40
2017-08-21T07:26:35.914Z,18.10
2017-08-21T07:29:05.218Z,18.10
2017-08-21T07:31:34.289Z,18.10
2017-08-21T07:34:03.470Z,18.30
2017-08-21T07:36:32.566Z,18.30
2017-08-21T07:39:01.873Z,18.20
2017-08-21T07:41:31.504Z,18.20
2017-08-21T07:44:01.208Z,18.20
2017-08-21T07:46:30.757Z,18.40
2017-08-21T07:49:00.087Z,18.50
2017-08-21T07:51:29.346Z,18.50
2017-08-21T07:53:58.665Z,18.60
2017-08-21T07:56:28.048Z,18.50
2017-08-21T07:58:57.448Z,18.50
2017-08-21T08:01:27.953Z,18.70
2017-08-21T08:03:57.841Z,18.80
2017-08-21T08:06:27.716Z,18.80
2017-08-21T08:08:57.279Z,18.80
2017-08-21T08:11:27.820Z,19.00
2017-08-21T08:13:57.330Z,19.70
2017-08-21T08:16:26.660Z,20.70
2017-08-21T08:18:59.882Z,22.10
2017-08-21T08:21:30.155Z,22.70
2017-08-21T08:24:00.414Z,23.60
2017-08-21T08:26:29.867Z,23.40
2017-08-21T08:28:58.990Z,24.30
2017-08-21T08:31:28.078Z,24.20
2017-08-21T08:33:57.244Z,24.40
2017-08-21T08:36:33.079Z,25.50
2017-08-21T08:39:02.115Z,26.10
2017-08-21T08:41:32.809Z,26.30
2017-08-21T08:44:02.152Z,25.50
2017-08-21T08:46:32.634Z,24.80
2017-08-21T08:49:03.162Z,24.40
2017-08-21T08:51:32.457Z,25.00
2017-08-21T08:54:01.944Z,26.70
2017-08-21T08:56:31.389Z,27.50
2017-08-21T08:59:00.676Z,27.90
2017-08-21T09:01:31.291Z,27.20
2017-08-21T09:04:01.070Z,28.00
2017-08-21T09:06:30.768Z,27.70
2017-08-21T09:09:00.173Z,28.20
2017-08-21T09:11:30.178Z,29.00
2017-08-21T09:13:59.486Z,27.60
2017-08-21T09:16:28.782Z,26.80
2017-08-21T09:18:58.737Z,26.50
2017-08-21T09:21:28.274Z,25.60
2017-08-21T09:23:58.559Z,25.80
2017-08-21T09:26:28.029Z,26.00
2017-08-21T09:28:57.649Z,26.40
2017-08-21T09:31:26.698Z,25.10
2017-08-21T09:33:56.077Z,24.80
2017-08-21T09:36:25.543Z,25.30
2017-08-21T09:38:55.173Z,26.40
2017-08-21T09:41:25.793Z,27.20
2017-08-21T09:43:55.348Z,27.70
2017-08-21T09:46:24.531Z,26.80
2017-08-21T09:48:53.803Z,26.40
2017-08-21T09:51:22.928Z,26.70
2017-08-21T09:53:52.598Z,28.40
2017-08-21T09:56:22.208Z,27.40
2017-08-21T09:58:52.957Z,27.80
2017-08-21T10:01:22.769Z,27.20
2017-08-21T10:03:54.966Z,28.00
2017-08-21T10:06:24.471Z,29.10
2017-08-21T10:08:53.983Z,29.70
2017-08-21T10:11:25.193Z,31.30
2017-08-21T10:13:55.317Z,32.30
2017-08-21T10:16:24.666Z,30.70
2017-08-21T10:18:53.913Z,28.60
2017-08-21T10:21:23.752Z,27.40
2017-08-21T10:23:53.530Z,27.00
2017-08-21T10:26:24.453Z,27.40
2017-08-21T10:28:53.590Z,29.00
2017-08-21T10:31:22.824Z,30.60
2017-08-21T10:33:52.290Z,31.40
2017-08-21T10:36:21.725Z,32.00
2017-08-21T10:38:50.807Z,32.40
2017-08-21T10:41:19.943Z,31.70
2017-08-21T10:43:49.845Z,30.50
2017-08-21T10:46:19.418Z,30.50
2017-08-21T10:48:48.831Z,29.20
2017-08-21T10:51:18.350Z,28.20
2017-08-21T10:53:47.770Z,28.80
2017-08-21T10:56:17.555Z,29.40
2017-08-21T10:58:46.800Z,29.30
2017-08-21T11:01:17.007Z,29.40
2017-08-21T11:03:46.232Z,29.50
2017-08-21T11:06:15.699Z,30.90
2017-08-21T11:08:45.378Z,30.30
2017-08-21T11:11:14.964Z,29.90
2017-08-21T11:13:44.619Z,29.90
2017-08-21T11:16:14.253Z,30.80
2017-08-21T11:18:43.803Z,31.60
2017-08-21T11:21:13.535Z,33.60
2017-08-21T11:23:42.801Z,33.50
2017-08-21T11:26:12.650Z,34.00
2017-08-21T11:28:41.928Z,33.80
2017-08-21T11:31:11.421Z,32.80
2017-08-21T11:33:40.742Z,33.90
2017-08-21T11:36:10.844Z,31.70
2017-08-21T11:38:42.985Z,31.40
2017-08-21T11:41:12.646Z,31.50
2017-08-21T11:43:41.889Z,31.20
2017-08-21T11:46:12.026Z,30.70
2017-08-21T11:48:41.793Z,30.70
2017-08-21T11:51:11.079Z,30.50
2017-08-21T11:53:40.389Z,32.30
2017-08-21T11:56:11.987Z,32.00
2017-08-21T11:58:41.465Z,31.90
2017-08-21T12:01:11.101Z,32.50
2017-08-21T12:03:40.280Z,32.60
2017-08-21T12:06:09.292Z,33.30
2017-08-21T12:08:40.292Z,33.60
2017-08-21T12:11:10.210Z,33.80
2017-08-21T12:13:39.309Z,32.90
2017-08-21T12:16:08.516Z,32.70
2017-08-21T12:18:37.631Z,31.40
2017-08-21T12:21:07.528Z,32.50
2017-08-21T12:23:37.797Z,33.20
2017-08-21T12:26:07.265Z,33.30
2017-08-21T12:28:37.469Z,33.40
2017-08-21T12:31:08.214Z,33.30
2017-08-21T12:33:37.910Z,33.80
2017-08-21T12:36:11.231Z,34.00
2017-08-21T12:38:42.222Z,33.40
2017-08-21T12:41:13.539Z,33.00
2017-08-21T12:43:43.156Z,33.70
2017-08-21T12:46:15.111Z,33.90
2017-08-21T12:48:44.762Z,34.30
2017-08-21T12:51:14.653Z,32.80
2017-08-21T12:53:43.744Z,30.40
2017-08-21T12:56:12.897Z,28.50
2017-08-21T12:58:43.774Z,29.50
2017-08-21T13:01:13.035Z,31.40
2017-08-21T13:03:45.241Z,31.10
2017-08-21T13:06:17.785Z,31.10
2017-08-21T13:08:49.027Z,30.20
2017-08-21T13:11:20.922Z,30.30
2017-08-21T13:13:50.273Z,30.00
2017-08-21T13:16:19.583Z,31.10
2017-08-21T13:18:48.808Z,32.40
2017-08-21T13:21:19.411Z,33.20
2017-08-21T13:23:48.736Z,33.20
2017-08-21T13:26:17.887Z,33.00
2017-08-21T13:28:46.873Z,33.20
2017-08-21T13:31:16.254Z,32.70
2017-08-21T13:33:45.305Z,33.10
2017-08-21T13:36:15.425Z,32.70
2017-08-21T13:38:46.405Z,31.90
2017-08-21T13:41:15.890Z,29.90
2017-08-21T13:43:46.350Z,27.90
2017-08-21T13:46:15.725Z,27.90
2017-08-21T13:48:44.985Z,28.50
2017-08-21T13:51:14.559Z,29.50
2017-08-21T13:53:43.688Z,29.50
2017-08-21T13:56:12.901Z,29.20
2017-08-21T13:58:42.044Z,27.10
2017-08-21T14:01:11.361Z,26.70
2017-08-21T14:03:40.429Z,26.70
2017-08-21T14:06:09.615Z,26.40
2017-08-21T14:08:42.624Z,26.40
2017-08-21T14:11:11.935Z,26.40
2017-08-21T14:13:41.293Z,26.50
2017-08-21T14:16:10.734Z,26.20
2017-08-21T14:18:39.979Z,26.10
2017-08-21T14:21:09.396Z,25.80
2017-08-21T14:23:39.342Z,25.10
2017-08-21T14:26:08.649Z,25.10
2017-08-21T14:28:37.693Z,25.20
2017-08-21T14:31:13.065Z,25.50
2017-08-21T14:33:50.299Z,25.50
2017-08-21T14:36:19.611Z,25.40
2017-08-21T14:38:49.061Z,25.10
2017-08-21T14:41:18.642Z,25.40
2017-08-21T14:43:47.917Z,25.40
2017-08-21T14:46:17.062Z,25.10
2017-08-21T14:48:46.167Z,24.90
2017-08-21T14:51:19.865Z,24.60
2017-08-21T14:53:49.392Z,24.90
2017-08-21T14:56:18.624Z,24.70
2017-08-21T14:58:47.865Z,24.50
2017-08-21T15:01:19.107Z,24.70
2017-08-21T15:03:48.754Z,24.90
2017-08-21T15:06:18.942Z,24.90
2017-08-21T15:08:49.042Z,24.80
2017-08-21T15:11:18.855Z,24.70
2017-08-21T15:13:49.101Z,24.50
2017-08-21T15:16:19.958Z,24.50
2017-08-21T15:18:49.272Z,24.80
2017-08-21T15:21:19.201Z,24.80
2017-08-21T15:23:48.599Z,25.10
2017-08-21T15:26:18.140Z,25.10
2017-08-21T15:28:47.809Z,25.30
2017-08-21T15:31:17.158Z,24.90
2017-08-21T15:33:46.802Z,24.90
2017-08-21T15:36:16.076Z,25.00
2017-08-21T15:39:14.642Z,24.70
2017-08-21T15:41:44.880Z,24.40
2017-08-21T15:44:14.498Z,24.40
2017-08-21T15:46:44.107Z,24.50
2017-08-21T15:49:13.274Z,24.40
2017-08-21T15:51:42.349Z,24.20
2017-08-21T15:54:12.097Z,24.00
2017-08-21T15:56:41.312Z,24.00
2017-08-21T15:59:10.579Z,23.80
2017-08-21T16:01:40.485Z,23.80
2017-08-21T16:04:10.102Z,23.80
2017-08-21T16:06:49.635Z,23.80
2017-08-21T16:09:25.362Z,23.80
2017-08-21T16:12:06.394Z,23.70
2017-08-21T16:14:35.753Z,23.60
2017-08-21T16:17:05.202Z,23.70
2017-08-21T16:19:34.718Z,23.90
2017-08-21T16:22:05.792Z,23.90
2017-08-21T16:24:35.354Z,24.00
2017-08-21T16:27:04.875Z,23.90
2017-08-21T16:29:34.886Z,23.60
2017-08-21T16:32:04.209Z,23.60
2017-08-21T16:34:34.987Z,23.60
2017-08-21T16:37:04.494Z,23.50
2017-08-21T16:39:34.627Z,23.70
2017-08-21T16:42:05.163Z,23.70
2017-08-21T16:44:34.707Z,23.70
2017-08-21T16:47:04.024Z,23.70
2017-08-21T16:49:34.467Z,23.70
2017-08-21T16:52:05.690Z,23.70
2017-08-21T16:54:35.388Z,23.70
2017-08-21T16:57:04.680Z,23.60
2017-08-21T16:59:34.783Z,23.50
2017-08-21T17:02:04.011Z,23.10
2017-08-21T17:04:33.361Z,23.20
2017-08-21T17:07:03.218Z,23.30
2017-08-21T17:09:32.422Z,23.40
2017-08-21T17:12:01.684Z,23.20
2017-08-21T17:14:30.847Z,23.20
2017-08-21T17:17:00.973Z,23.40
2017-08-21T17:19:30.676Z,23.40
2017-08-21T17:22:00.361Z,23.40
2017-08-21T17:24:30.883Z,23.40
2017-08-21T17:27:00.217Z,23.30
2017-08-21T17:29:29.645Z,23.10
2017-08-21T17:31:59.921Z,22.80
2017-08-21T17:34:29.379Z,22.90
2017-08-21T17:37:02.883Z,22.80
2017-08-21T17:39:32.586Z,22.70
2017-08-21T17:42:03.331Z,22.40
2017-08-21T17:44:37.242Z,22.40
2017-08-21T17:47:13.467Z,22.40
2017-08-21T17:49:42.822Z,22.30
2017-08-21T17:52:12.732Z,22.20
2017-08-21T17:54:49.294Z,22.10
2017-08-21T17:57:26.599Z,22.00
2017-08-21T17:59:57.796Z,22.00
2017-08-21T18:02:29.274Z,22.00
2017-08-21T18:04:58.856Z,21.80
2017-08-21T18:07:31.357Z,21.80
2017-08-21T18:10:08.503Z,21.80
2017-08-21T18:12:38.257Z,21.60
2017-08-21T18:15:07.512Z,21.50
2017-08-21T18:17:36.899Z,21.50
2017-08-21T18:20:07.189Z,21.50
2017-08-21T18:22:36.440Z,21.40
2017-08-21T18:25:06.205Z,21.40
2017-08-21T18:27:35.578Z,21.40
2017-08-21T18:30:05.928Z,21.30
2017-08-21T18:32:35.294Z,21.40
2017-08-21T18:35:05.157Z,21.10
2017-08-21T18:37:41.897Z,21.10
2017-08-21T18:40:16.647Z,21.00
2017-08-21T18:42:47.385Z,21.00
2017-08-21T18:45:18.005Z,20.90
2017-08-21T18:47:47.592Z,20.90
2017-08-21T18:50:17.646Z,20.90
2017-08-21T18:52:59.075Z,20.90
2017-08-21T18:55:28.898Z,20.90
2017-08-21T18:58:04.810Z,20.80
2017-08-21T19:00:37.951Z,20.70
2017-08-21T19:03:15.404Z,20.70
2017-08-21T19:05:48.526Z,20.60
2017-08-21T19:08:18.087Z,20.50
2017-08-21T19:10:47.581Z,20.50
2017-08-21T19:13:42.340Z,20.40
2017-08-21T19:16:13.120Z,20.40
2017-08-21T19:18:45.582Z,20.30
2017-08-21T19:21:16.528Z,20.20
2017-08-21T19:23:46.144Z,20.20
2017-08-21T19:26:15.472Z,20.20
2017-08-21T19:28:44.848Z,20.20
2017-08-21T19:31:15.691Z,20.10
2017-08-21T19:33:46.428Z,20.00
2017-08-21T19:36:19.088Z,20.00
2017-08-21T19:38:48.403Z,19.90
2017-08-21T19:41:29.050Z,19.90
2017-08-21T19:44:02.408Z,19.80
2017-08-21T19:46:33.677Z,19.80
2017-08-21T19:49:03.732Z,19.80
2017-08-21T19:51:33.539Z,19.80
2017-08-21T19:54:03.047Z,19.70
2017-08-21T19:56:32.994Z,19.70
2017-08-21T19:59:03.222Z,19.70
2017-08-21T20:01:35.144Z,19.70
2017-08-21T20:04:13.969Z,19.70
2017-08-21T20:07:44.452Z,19.60
2017-08-21T20:10:38.286Z,19.60
2017-08-21T20:13:07.563Z,19.60
2017-08-21T20:15:36.771Z,19.60
2017-08-21T20:18:06.305Z,19.50
2017-08-21T20:20:56.251Z,19.50
2017-08-21T20:23:25.751Z,19.40
2017-08-21T20:25:56.355Z,19.30
2017-08-21T20:28:26.487Z,19.20
2017-08-21T20:30:56.221Z,19.20
2017-08-21T20:33:26.959Z,19.20
2017-08-21T20:36:05.077Z,19.10
2017-08-21T20:39:14.624Z,19.10
2017-08-21T20:41:45.635Z,19.00
2017-08-21T20:44:15.774Z,19.00
2017-08-21T20:46:45.296Z,19.00
2017-08-21T20:49:15.344Z,18.90
2017-08-21T20:51:46.126Z,18.90
2017-08-21T20:54:15.723Z,18.90
2017-08-21T20:56:45.092Z,18.80
2017-08-21T20:59:14.642Z,18.80
2017-08-21T21:01:49.775Z,18.70
2017-08-21T21:04:19.439Z,18.60
2017-08-21T21:06:51.100Z,18.60
2017-08-21T21:09:34.021Z,18.50
2017-08-21T21:12:10.286Z,18.50
2017-08-21T21:14:39.966Z,18.50
2017-08-21T21:17:09.168Z,18.40
2017-08-21T21:19:38.707Z,18.30
2017-08-21T21:22:09.142Z,18.20
2017-08-21T21:24:38.627Z,18.20
2017-08-21T21:27:08.024Z,18.20
2017-08-21T21:29:37.378Z,18.10
2017-08-21T21:32:37.518Z,18.20
2017-08-21T21:35:06.725Z,18.20
2017-08-21T21:37:37.664Z,18.10
2017-08-21T21:40:07.501Z,18.10
2017-08-21T21:42:36.935Z,18.10
2017-08-21T21:45:06.720Z,18.00
2017-08-21T21:47:37.009Z,18.00
2017-08-21T21:50:08.998Z,17.90
2017-08-21T21:52:38.502Z,17.90
2017-08-21T21:55:07.837Z,17.80
2017-08-21T21:57:38.734Z,17.70
2017-08-21T22:00:08.393Z,17.80
2017-08-21T22:02:37.671Z,17.70
2017-08-21T22:05:07.307Z,17.70
2017-08-21T22:07:51.085Z,17.60
2017-08-21T22:10:26.469Z,17.60
2017-08-21T22:12:56.519Z,17.50
2017-08-21T22:15:26.149Z,17.50
2017-08-21T22:18:09.584Z,17.40
2017-08-21T22:20:39.465Z,17.40
2017-08-21T22:23:25.598Z,17.30
2017-08-21T22:25:56.186Z,17.30
2017-08-21T22:28:29.075Z,17.20
2017-08-21T22:30:58.635Z,17.20
2017-08-21T22:33:28.035Z,17.10
2017-08-21T22:36:02.740Z,17.10
2017-08-21T22:38:32.361Z,17.00
2017-08-21T22:41:02.217Z,17.00
2017-08-21T22:43:32.276Z,16.90
2017-08-21T22:46:03.673Z,16.90
2017-08-21T22:48:33.647Z,17.00
2017-08-21T22:51:03.682Z,16.90
2017-08-21T22:53:33.077Z,16.80
2017-08-21T22:56:02.953Z,16.70
2017-08-21T22:58:33.170Z,16.70
2017-08-21T23:01:02.471Z,16.70
2017-08-21T23:05:01.469Z,16.60
2017-08-21T23:07:33.378Z,16.60
2017-08-21T23:10:04.775Z,16.50
2017-08-21T23:12:34.170Z,16.50
2017-08-21T23:15:03.684Z,16.50
2017-08-21T23:17:34.237Z,16.40
2017-08-21T23:20:03.540Z,16.40
2017-08-21T23:22:33.670Z,16.30
2017-08-21T23:25:03.152Z,16.30
2017-08-21T23:27:32.919Z,16.30
2017-08-21T23:30:02.390Z,16.20
2017-08-21T23:32:32.469Z,16.20
2017-08-21T23:35:03.403Z,16.30
2017-08-21T23:37:32.657Z,16.20
2017-08-21T23:40:01.988Z,16.30
2017-08-21T23:42:31.538Z,16.30
2017-08-21T23:45:00.929Z,16.30
2017-08-21T23:47:31.014Z,16.30
2017-08-21T23:50:02.620Z,16.20
2017-08-21T23:52:32.207Z,16.20
2017-08-21T23:55:02.298Z,16.20
2017-08-21T23:57:31.865Z,16.20
